• Join FlightAware (Why Join?)
  • Login
  • US Flag 
04:14AM EDT


 

Airport Tracker/Info


-or-


 

Live Flight TrackerFlight Track Log ✈ N201AK ✈ 07-Feb-2014 ✈ KCDW - KJYO

Flight Track Log - Related Links

Times and Time Zones

All times are in EST time to prevent confusion due to time zone crossing. See the N201AK flight status page for this flight to view local times or setup timezone preferences in your user account.

Time Position Orientation Groundspeed Altitude Reporting Facility
EST Latitude Longitude Course Direction KTS MPH feet Rate Location/Type
03:58PM 40.8333 -74.2667 228° Southwest 105 121 1,900  Level New York TRACON
03:59PM 40.8167 -74.3000 237° Southwest 88 101 2,800 720 Climbing New York TRACON
04:00PM 40.8000 -74.3167 217° Southwest 98 113 3,300 480 Climbing New York TRACON
04:01PM 40.7833 -74.3500 237° Southwest 112 129 3,800 300 Climbing New York TRACON
04:02PM 40.7667 -74.4000 246° West 132 152 4,000 60 Climbing New York TRACON
04:03PM 40.7500 -74.4333 237° Southwest 131 151 4,000  Level New York TRACON
04:04PM 40.7089 -74.5279 228° Southwest  Level FlightAware Approximate
04:04PM 40.7167 -74.4833 229° Southwest 131 151 4,000  Level New York TRACON
04:05PM 40.7000 -74.5167 237° Southwest 132 152 4,000  Level New York TRACON
04:06PM 40.7000 -74.5667 270° West 130 150 4,000  Level New York TRACON
04:07PM 40.7000 -74.6000 270° West 125 144 4,000  Level New York TRACON
04:08PM 40.7000 -74.6500 270° West 126 145 4,000 -60 Level New York TRACON
04:52PM 40.0167 -76.5167 237° Southwest 137 158 3,900  Descending Potomac TRACON
04:53PM 40.0373 -76.4422 237° Southwest  Level FlightAware Approximate
04:53PM 40.0000 -76.5500 237° Southwest 132 152 4,000  Level Potomac TRACON
04:54PM 40.0188 -76.4792 237° Southwest  Level FlightAware Approximate
04:54PM 39.9833 -76.6000 247° West 133 153 4,000  Level Potomac TRACON
04:55PM 40.0003 -76.5162 237° Southwest  Level FlightAware Approximate
04:55PM 39.9667 -76.6333 237° Southwest 133 153 3,900  Level Potomac TRACON
04:56PM 39.9818 -76.5531 237° Southwest  Level FlightAware Approximate
04:56PM 39.9500 -76.6667 237° Southwest 129 148 3,900  Level Potomac TRACON
04:57PM 39.9633 -76.5901 237° Southwest  Level FlightAware Approximate
04:57PM 39.9333 -76.7167 247° West 125 144 3,900  Level Potomac TRACON
04:58PM 39.9000 -76.7500 217° Southwest 129 148 3,900  Level Potomac TRACON
04:59PM 39.8833 -76.8000 247° West 125 144 4,000  Climbing Potomac TRACON
05:00PM 39.8667 -76.8333 237° Southwest 131 151 4,000  Level Potomac TRACON
05:01PM 39.8500 -76.8667 237° Southwest 129 148 4,000 -60 Level Potomac TRACON
05:02PM 39.8333 -76.9167 247° West 128 147 3,900  Descending Potomac TRACON
05:03PM 39.8167 -76.9500 237° Southwest 132 152 4,000  Climbing Potomac TRACON
05:04PM 39.8000 -77.0000 247° West 133 153 3,900  Descending Potomac TRACON
05:05PM 39.7833 -77.0333 237° Southwest 132 152 4,000  Climbing Potomac TRACON
05:06PM 39.7667 -77.0667 237° Southwest 130 150 4,000  Level Potomac TRACON
05:07PM 39.7333 -77.1167 229° Southwest 137 158 4,000  Level Potomac TRACON
05:08PM 39.7167 -77.1500 237° Southwest 132 152 4,000  Level Potomac TRACON
05:09PM 39.7000 -77.1833 237° Southwest 134 154 4,000  Level Potomac TRACON
05:10PM 39.6667 -77.2167 218° Southwest 136 157 4,000  Level Potomac TRACON
05:11PM 39.6333 -77.2500 218° Southwest 138 159 4,000  Level Potomac TRACON
05:12PM 39.6000 -77.2833 218° Southwest 145 167 4,000  Level Potomac TRACON
05:13PM 39.5833 -77.3167 237° Southwest 143 165 4,000  Level Potomac TRACON
05:14PM 39.5500 -77.3500 218° Southwest 138 159 4,000  Level Potomac TRACON
05:15PM 39.5167 -77.3833 218° Southwest 136 157 4,000 -60 Level Potomac TRACON
05:16PM 39.4833 -77.4167 218° Southwest 144 166 3,900  Descending Potomac TRACON
05:17PM 39.4667 -77.4500 237° Southwest 143 165 4,000  Climbing Potomac TRACON
05:18PM 39.4333 -77.4833 218° Southwest 137 158 3,900 -120 Descending Potomac TRACON
05:19PM 39.4000 -77.5167 218° Southwest 137 158 3,800 -300 Descending Potomac TRACON
05:20PM 39.3667 -77.5333 201° Southwest 138 159 3,400 -480 Descending Potomac TRACON
05:21PM 39.3333 -77.5667 218° Southwest 139 160 2,900 -240 Descending Potomac TRACON
05:22PM 39.3167 -77.6000 237° Southwest 126 145 2,900  Level Potomac TRACON
05:23PM 39.2833 -77.6333 218° Southwest 116 133 2,900 -180 Level Potomac TRACON
05:24PM 39.2500 -77.6333 180° South 147 169 2,600 -360 Descending Potomac TRACON
05:25PM 39.2167 -77.6167 159° South 164 189 2,200 -300 Descending Potomac TRACON
05:26PM 39.1667 -77.6000 166° South 157 181 2,000 -300 Descending Potomac TRACON
05:27PM 39.1333 -77.5833 159° South 152 175 1,600 -480 Descending Potomac TRACON
05:28PM 39.1000 -77.5667 159° South 138 159 1,100 -360 Descending Potomac TRACON
05:29PM 39.0667 -77.5667 180° South 99 114 1,000 -240 Descending Potomac TRACON
05:30PM 39.0667 -77.5500 90° East 94 108 600 -360 Descending Potomac TRACON
05:31PM 39.0667 -77.5500 90° East 92 106 300 -180 Descending Potomac TRACON
05:32PM 39.1000 -77.5667 339° North 60 69 300  Level Potomac TRACON